Time;durP1;ratioP1;P1;durP2;ratioP2;P2;SDS_P1;SDS_P2;PMS_P1;PMS_P2;Temp;Humidity;BMP_temperature;BMP_pressure;BME280_temperature;BME280_humidity;BME280_pressure;Samples;Min_cycle;Max_cycle;Signal;HPM_P1;HPM_P2
2021/08/06 00:00:24;;;;;;;1.20;1.20;;;21.50;99.90;;;;;;5047249;28;20264;-71
2021/08/06 00:02:51;;;;;;;4.03;1.17;;;21.50;99.90;;;;;;5047672;28;20566;-71
2021/08/06 00:05:18;;;;;;;3.97;1.38;;;21.50;99.90;;;;;;5047759;28;20247;-71
2021/08/06 00:07:45;;;;;;;1.52;1.10;;;21.50;99.90;;;;;;5044643;28;20204;-71
2021/08/06 00:10:12;;;;;;;1.42;1.00;;;21.50;99.90;;;;;;5047071;28;20190;-70
2021/08/06 00:12:39;;;;;;;2.80;1.30;;;21.50;99.90;;;;;;5045627;28;20209;-71
2021/08/06 00:15:08;;;;;;;1.65;1.40;;;21.50;99.90;;;;;;5047429;28;20222;-71
2021/08/06 00:17:35;;;;;;;1.25;1.25;;;21.50;99.90;;;;;;5047774;28;20224;-71
2021/08/06 00:20:05;;;;;;;2.38;1.40;;;21.40;99.90;;;;;;5050317;28;20339;-71
2021/08/06 00:22:32;;;;;;;1.98;1.42;;;21.40;99.90;;;;;;5049479;28;20217;-71
2021/08/06 00:24:59;;;;;;;1.23;1.23;;;21.40;99.90;;;;;;5050417;28;20198;-71
2021/08/06 00:27:25;;;;;;;1.05;1.00;;;21.40;99.90;;;;;;5049203;28;20284;-71
2021/08/06 00:29:52;;;;;;;1.13;1.10;;;21.40;99.90;;;;;;5050972;28;20558;-71
2021/08/06 00:32:21;;;;;;;1.20;1.10;;;21.40;99.90;;;;;;5058609;28;20331;-71
2021/08/06 00:34:48;;;;;;;2.75;1.20;;;21.40;99.90;;;;;;5049562;28;20232;-71
2021/08/06 00:37:16;;;;;;;0.90;0.90;;;21.40;99.90;;;;;;5050382;28;20229;-70
2021/08/06 00:39:46;;;;;;;2.55;1.40;;;21.40;99.90;;;;;;5047503;28;20201;-71
2021/08/06 00:42:13;;;;;;;3.33;1.40;;;21.40;99.90;;;;;;5050838;28;20644;-71
2021/08/06 00:44:40;;;;;;;2.20;1.40;;;21.40;99.90;;;;;;5045058;28;20200;-71
2021/08/06 00:47:09;;;;;;;1.20;1.10;;;21.30;99.90;;;;;;5049556;28;20209;-71
2021/08/06 00:49:42;;;;;;;1.45;1.10;;;21.30;99.90;;;;;;5048159;28;20243;-71
2021/08/06 00:52:14;;;;;;;1.92;1.08;;;21.30;99.90;;;;;;5048638;28;20649;-71
2021/08/06 00:54:43;;;;;;;1.40;1.30;;;21.30;99.90;;;;;;5043878;28;20709;-71
2021/08/06 00:57:15;;;;;;;3.75;1.33;;;21.30;99.90;;;;;;5049652;28;20308;-71
2021/08/06 00:59:45;;;;;;;1.60;1.30;;;21.30;99.90;;;;;;5050070;28;20604;-70
2021/08/06 01:02:19;;;;;;;1.60;1.50;;;21.20;99.90;;;;;;5062467;28;20469;-72
2021/08/06 01:04:55;;;;;;;1.38;1.27;;;21.20;99.90;;;;;;5049036;28;20290;-71
2021/08/06 01:07:35;;;;;;;2.70;1.60;;;21.20;99.90;;;;;;5047667;28;20264;-71
2021/08/06 01:10:07;;;;;;;1.60;1.50;;;21.10;99.90;;;;;;5049810;28;20202;-71
2021/08/06 01:12:51;;;;;;;1.65;1.33;;;21.10;99.90;;;;;;5060039;28;20211;-70
2021/08/06 01:15:20;;;;;;;2.25;1.58;;;21.10;99.90;;;;;;5049301;28;20229;-71
2021/08/06 01:17:48;;;;;;;1.10;1.10;;;21.10;99.90;;;;;;5050017;28;20194;-71
2021/08/06 01:20:25;;;;;;;1.08;1.08;;;21.10;99.90;;;;;;5048880;28;20242;-71
2021/08/06 01:23:00;;;;;;;1.73;1.20;;;21.10;99.90;;;;;;5047517;28;20691;-70
2021/08/06 01:26:00;;;;;;;1.23;1.13;;;21.00;99.90;;;;;;5024214;28;20353;-72
2021/08/06 01:28:45;;;;;;;2.15;1.40;;;21.00;99.90;;;;;;5008440;28;20217;-70
2021/08/06 01:31:15;;;;;;;1.30;1.10;;;21.00;99.90;;;;;;5010550;28;20565;-70
2021/08/06 01:33:45;;;;;;;1.25;1.20;;;21.00;99.90;;;;;;5003955;28;20260;-70
2021/08/06 01:36:20;;;;;;;1.27;1.17;;;21.00;99.90;;;;;;5011108;28;20705;-70
2021/08/06 01:38:49;;;;;;;1.50;1.40;;;21.00;99.90;;;;;;5009030;28;20639;-70
2021/08/06 01:41:26;;;;;;;1.38;1.27;;;21.00;99.90;;;;;;5009371;28;20776;-70
2021/08/06 01:44:11;;;;;;;1.45;1.35;;;21.00;99.90;;;;;;5010147;28;20284;-72
2021/08/06 01:46:46;;;;;;;1.38;1.27;;;21.00;99.90;;;;;;5010220;28;20210;-71
2021/08/06 01:49:19;;;;;;;1.73;1.20;;;21.00;99.90;;;;;;5006966;28;20281;-71
2021/08/06 01:51:51;;;;;;;1.55;1.10;;;21.00;99.90;;;;;;5008796;28;20244;-70
2021/08/06 01:54:21;;;;;;;1.25;1.25;;;21.00;99.90;;;;;;5005564;28;20226;-71
2021/08/06 01:56:53;;;;;;;2.22;1.20;;;21.00;99.90;;;;;;5013976;28;20710;-70
2021/08/06 01:59:21;;;;;;;1.25;1.15;;;20.90;99.90;;;;;;5010384;28;20213;-71
2021/08/06 02:01:55;;;;;;;1.08;1.08;;;20.90;99.90;;;;;;5017191;28;20237;-71
2021/08/06 02:04:23;;;;;;;1.33;1.23;;;20.90;99.90;;;;;;5047603;28;20695;-71
2021/08/06 02:07:01;;;;;;;3.42;1.20;;;20.90;99.90;;;;;;5047396;28;20213;-71
2021/08/06 02:09:32;;;;;;;2.85;1.25;;;20.90;99.90;;;;;;5045664;28;20260;-71
2021/08/06 02:12:04;;;;;;;1.20;1.17;;;20.90;99.90;;;;;;5047685;28;20209;-71
2021/08/06 02:14:53;;;;;;;1.20;1.10;;;20.80;99.90;;;;;;5039666;28;20227;-70
2021/08/06 02:17:23;;;;;;;2.20;1.08;;;20.80;99.90;;;;;;5048022;28;20217;-70
2021/08/06 02:19:54;;;;;;;1.10;1.10;;;20.80;99.90;;;;;;5047207;28;20593;-71
2021/08/06 02:22:23;;;;;;;1.70;1.60;;;20.70;99.90;;;;;;5034165;28;20205;-71
2021/08/06 02:24:55;;;;;;;1.10;1.10;;;20.70;99.90;;;;;;5046362;28;20220;-71
2021/08/06 02:27:30;;;;;;;0.93;0.93;;;20.70;99.90;;;;;;5047265;28;20534;-71
2021/08/06 02:30:01;;;;;;;1.10;1.00;;;20.60;99.90;;;;;;5047078;28;20343;-71
2021/08/06 02:32:33;;;;;;;1.13;1.13;;;20.60;99.90;;;;;;5046506;28;20300;-71
2021/08/06 02:35:03;;;;;;;1.17;1.00;;;20.60;99.90;;;;;;5046381;28;20264;-71
2021/08/06 02:37:36;;;;;;;1.20;1.10;;;20.60;99.90;;;;;;5046002;28;20307;-70
2021/08/06 02:40:04;;;;;;;1.35;1.00;;;20.50;99.90;;;;;;5046028;28;20198;-71
2021/08/06 02:42:34;;;;;;;0.90;0.90;;;20.50;99.90;;;;;;5051541;28;20198;-71
2021/08/06 02:45:01;;;;;;;2.58;1.20;;;20.50;99.90;;;;;;5047973;28;20662;-71
2021/08/06 02:47:28;;;;;;;1.90;1.10;;;20.50;99.90;;;;;;5046780;28;20283;-71
2021/08/06 02:49:55;;;;;;;1.00;1.00;;;20.40;99.90;;;;;;5047325;28;20194;-71
2021/08/06 02:52:22;;;;;;;1.20;1.20;;;20.40;99.90;;;;;;5048031;28;20209;-71
2021/08/06 02:54:50;;;;;;;3.17;1.20;;;20.40;99.90;;;;;;5045959;28;20201;-71
2021/08/06 02:57:17;;;;;;;2.17;1.17;;;20.40;99.90;;;;;;5068657;28;20271;-71
2021/08/06 02:59:46;;;;;;;1.38;1.05;;;20.40;99.90;;;;;;5047312;28;20268;-71
2021/08/06 03:02:13;;;;;;;1.70;1.10;;;20.40;99.90;;;;;;5047703;28;20194;-71
2021/08/06 03:04:41;;;;;;;1.00;0.90;;;20.40;99.90;;;;;;5045666;28;20251;-71
2021/08/06 03:07:13;;;;;;;2.38;1.30;;;20.40;99.90;;;;;;5047177;28;20217;-71
2021/08/06 03:09:39;;;;;;;1.23;1.23;;;20.50;99.90;;;;;;5045311;28;20209;-71
2021/08/06 03:12:07;;;;;;;3.05;1.00;;;20.50;99.90;;;;;;5048008;28;20280;-71
2021/08/06 03:14:37;;;;;;;1.95;1.17;;;20.40;99.90;;;;;;5046635;28;20206;-70
2021/08/06 03:17:06;;;;;;;1.17;1.05;;;20.40;99.90;;;;;;5047013;28;20316;-70
2021/08/06 03:19:36;;;;;;;1.10;1.00;;;20.40;99.90;;;;;;5046905;28;20311;-71
2021/08/06 03:22:04;;;;;;;1.92;0.98;;;20.40;99.90;;;;;;5046278;28;20234;-71
2021/08/06 03:24:34;;;;;;;1.20;1.20;;;20.40;99.90;;;;;;5061851;28;20201;-71
2021/08/06 03:27:01;;;;;;;4.70;1.45;;;20.40;99.90;;;;;;5047317;28;20205;-71
2021/08/06 03:29:29;;;;;;;1.50;1.40;;;20.40;99.90;;;;;;5063498;28;20716;-71
2021/08/06 03:31:56;;;;;;;1.10;0.90;;;20.30;99.90;;;;;;5046798;28;20205;-71
2021/08/06 03:34:24;;;;;;;0.90;0.90;;;20.40;99.90;;;;;;5046454;28;20263;-71
2021/08/06 03:36:51;;;;;;;0.98;0.80;;;20.40;99.90;;;;;;5047629;28;20312;-70
2021/08/06 03:39:18;;;;;;;1.00;1.00;;;20.40;99.90;;;;;;5044601;28;20284;-71
2021/08/06 03:41:48;;;;;;;0.93;0.90;;;20.40;99.90;;;;;;5046977;28;20205;-71
2021/08/06 03:44:15;;;;;;;2.50;0.98;;;20.30;99.90;;;;;;5045939;28;20214;-71
2021/08/06 03:46:42;;;;;;;1.23;1.00;;;20.40;99.90;;;;;;5047500;28;20674;-71
2021/08/06 03:49:09;;;;;;;1.50;1.30;;;20.30;99.90;;;;;;5045787;28;20233;-70
2021/08/06 03:51:37;;;;;;;1.23;1.05;;;20.30;99.90;;;;;;5048001;28;20272;-70
2021/08/06 03:54:05;;;;;;;1.15;0.98;;;20.30;99.90;;;;;;5047672;28;20531;-71
2021/08/06 03:56:34;;;;;;;1.25;1.15;;;20.30;99.90;;;;;;5059014;28;20213;-71
2021/08/06 03:59:01;;;;;;;1.17;1.10;;;20.30;99.90;;;;;;5054627;28;20298;-71
2021/08/06 04:01:29;;;;;;;1.00;0.90;;;20.30;99.90;;;;;;5035035;28;20213;-71
2021/08/06 04:03:56;;;;;;;1.80;0.90;;;20.30;99.90;;;;;;5049684;28;20201;-71
2021/08/06 04:06:23;;;;;;;1.45;1.00;;;20.30;99.90;;;;;;5051123;28;20193;-71
2021/08/06 04:08:52;;;;;;;0.93;0.68;;;20.30;99.90;;;;;;5049420;28;20217;-70
2021/08/06 04:11:21;;;;;;;1.75;0.80;;;20.20;99.90;;;;;;5044227;28;20638;-70
2021/08/06 04:13:48;;;;;;;0.75;0.75;;;20.20;99.90;;;;;;5042966;28;20304;-70
2021/08/06 04:16:15;;;;;;;1.92;0.95;;;20.20;99.90;;;;;;5050471;28;20222;-70
2021/08/06 04:18:42;;;;;;;2.30;0.77;;;20.20;99.90;;;;;;5051743;28;20194;-71
2021/08/06 04:21:08;;;;;;;1.10;0.70;;;20.20;99.90;;;;;;5051414;28;20304;-71
2021/08/06 04:23:36;;;;;;;1.50;0.82;;;20.20;99.90;;;;;;5049215;28;20267;-70
2021/08/06 04:26:04;;;;;;;2.75;0.98;;;20.20;99.90;;;;;;5049653;28;20232;-71
2021/08/06 04:28:31;;;;;;;3.40;1.08;;;20.20;99.90;;;;;;5051000;28;20285;-70
2021/08/06 04:31:00;;;;;;;3.83;0.88;;;20.20;99.90;;;;;;5050191;28;20206;-71
2021/08/06 04:33:27;;;;;;;2.30;0.70;;;20.20;99.90;;;;;;5049219;28;20208;-71
2021/08/06 04:35:54;;;;;;;1.52;0.90;;;20.20;99.90;;;;;;5049883;28;20767;-70
2021/08/06 04:38:21;;;;;;;2.85;0.88;;;20.10;99.90;;;;;;5049222;28;20208;-70
2021/08/06 04:40:48;;;;;;;1.83;0.90;;;20.10;99.90;;;;;;5049529;28;20202;-70
2021/08/06 04:43:19;;;;;;;2.80;0.75;;;20.10;99.90;;;;;;5048824;28;20696;-70
2021/08/06 04:45:46;;;;;;;3.70;0.85;;;20.20;99.70;;;;;;5046982;28;20279;-70
2021/08/06 04:48:17;;;;;;;1.02;0.90;;;20.20;99.20;;;;;;5049263;28;20221;-70
2021/08/06 04:50:43;;;;;;;4.90;1.00;;;20.20;99.20;;;;;;5049387;28;20208;-70
2021/08/06 04:53:10;;;;;;;2.55;0.95;;;20.30;99.10;;;;;;5048192;28;20198;-70
2021/08/06 04:55:37;;;;;;;1.30;0.93;;;20.30;98.30;;;;;;5055853;28;20288;-70
2021/08/06 04:58:07;;;;;;;0.77;0.75;;;20.30;97.90;;;;;;5065360;28;20751;-70
2021/08/06 05:00:36;;;;;;;2.63;1.10;;;20.30;97.90;;;;;;5045390;28;20295;-71
2021/08/06 05:03:06;;;;;;;1.58;1.20;;;20.40;97.10;;;;;;5048529;28;20234;-71
2021/08/06 05:05:39;;;;;;;3.05;1.08;;;20.40;96.60;;;;;;5048855;28;20212;-71
2021/08/06 05:08:06;;;;;;;3.05;0.90;;;20.40;95.80;;;;;;5046854;28;20217;-70
2021/08/06 05:10:33;;;;;;;1.95;0.88;;;20.40;95.30;;;;;;5048377;28;20222;-69
2021/08/06 05:13:00;;;;;;;1.75;0.90;;;20.40;95.40;;;;;;5048677;28;20229;-70
2021/08/06 05:15:27;;;;;;;1.83;1.20;;;20.40;95.50;;;;;;5050029;28;20194;-69
2021/08/06 05:18:01;;;;;;;0.73;0.73;;;20.50;95.80;;;;;;5048761;28;20233;-69
2021/08/06 05:20:28;;;;;;;0.95;0.90;;;20.50;95.80;;;;;;5049109;28;20229;-70
2021/08/06 05:22:56;;;;;;;4.20;1.00;;;20.50;95.10;;;;;;5047084;28;20201;-70
2021/08/06 05:25:23;;;;;;;1.67;1.10;;;20.50;94.30;;;;;;5047934;28;20687;-70
2021/08/06 05:27:50;;;;;;;3.83;0.80;;;20.50;94.00;;;;;;5049019;28;20209;-69
2021/08/06 05:30:20;;;;;;;2.33;1.15;;;20.50;93.00;;;;;;5048927;28;20201;-72
2021/08/06 05:32:48;;;;;;;4.43;1.02;;;20.50;92.90;;;;;;5048403;28;20559;-70
2021/08/06 05:35:18;;;;;;;8.90;0.98;;;20.50;93.00;;;;;;5048317;28;20300;-70
2021/08/06 05:37:45;;;;;;;3.17;1.00;;;20.50;93.10;;;;;;5047193;28;20288;-70
2021/08/06 05:40:13;;;;;;;2.55;0.93;;;20.60;93.10;;;;;;5048095;28;20208;-71
2021/08/06 05:42:41;;;;;;;3.28;1.05;;;20.70;92.90;;;;;;5064897;28;20300;-70
2021/08/06 05:45:10;;;;;;;2.50;1.17;;;20.70;92.60;;;;;;5047903;28;20205;-71
2021/08/06 05:47:46;;;;;;;12.00;1.08;;;20.80;92.60;;;;;;5048702;28;20206;-71
2021/08/06 05:50:14;;;;;;;1.60;1.10;;;20.80;92.00;;;;;;5048174;28;20276;-71
2021/08/06 05:52:45;;;;;;;4.07;1.38;;;20.80;92.00;;;;;;5046251;28;20294;-71
2021/08/06 05:55:12;;;;;;;1.23;1.10;;;20.80;92.00;;;;;;5039686;28;20203;-70
2021/08/06 05:57:41;;;;;;;3.17;1.02;;;20.90;91.70;;;;;;5060411;28;20374;-70
2021/08/06 06:00:11;;;;;;;0.88;0.88;;;20.90;91.70;;;;;;5047750;28;20190;-70
2021/08/06 06:02:50;;;;;;;0.98;0.98;;;20.90;92.00;;;;;;5045289;28;20244;-71
2021/08/06 06:05:36;;;;;;;1.85;1.40;;;21.00;92.40;;;;;;5045665;28;20688;-71
2021/08/06 06:08:05;;;;;;;2.00;1.13;;;21.10;92.80;;;;;;5043779;28;20198;-71
2021/08/06 06:10:32;;;;;;;3.47;1.45;;;21.10;93.00;;;;;;5049080;28;20208;-71
2021/08/06 06:13:00;;;;;;;2.15;1.30;;;21.20;93.10;;;;;;5046791;28;20624;-70
2021/08/06 06:15:27;;;;;;;1.88;1.17;;;21.20;92.70;;;;;;5046995;28;20332;-71
2021/08/06 06:17:56;;;;;;;3.25;1.17;;;21.20;92.50;;;;;;5046138;28;20230;-71
2021/08/06 06:20:25;;;;;;;1.35;1.10;;;21.20;92.10;;;;;;5047357;28;20268;-70
2021/08/06 06:22:52;;;;;;;3.22;1.10;;;21.30;92.10;;;;;;5046196;28;20309;-71
2021/08/06 06:25:22;;;;;;;3.50;1.13;;;21.30;92.10;;;;;;5046230;28;20197;-71
2021/08/06 06:27:55;;;;;;;0.90;0.90;;;21.30;92.20;;;;;;5046118;28;20201;-71
2021/08/06 06:30:26;;;;;;;3.25;1.00;;;21.30;92.50;;;;;;5049148;28;20198;-71
2021/08/06 06:32:54;;;;;;;2.78;1.17;;;21.30;92.90;;;;;;5046245;28;20209;-71
2021/08/06 06:35:22;;;;;;;9.75;1.15;;;21.30;93.10;;;;;;5046118;28;20658;-71
2021/08/06 06:37:50;;;;;;;1.23;1.10;;;21.30;92.90;;;;;;5045911;28;20213;-71
2021/08/06 06:40:18;;;;;;;3.20;1.10;;;21.30;92.90;;;;;;5046498;28;20206;-71
2021/08/06 06:42:48;;;;;;;5.40;1.00;;;21.30;93.20;;;;;;5046318;28;20280;-71
2021/08/06 06:45:17;;;;;;;4.15;1.13;;;21.30;92.10;;;;;;5046490;28;20202;-71
2021/08/06 06:47:46;;;;;;;4.50;1.00;;;21.20;92.10;;;;;;5046254;28;20196;-70
2021/08/06 06:50:14;;;;;;;3.70;1.30;;;21.20;91.70;;;;;;5047255;28;20663;-71
2021/08/06 06:52:46;;;;;;;1.60;0.80;;;21.20;91.80;;;;;;5061503;28;20281;-70
2021/08/06 06:55:13;;;;;;;4.38;1.05;;;21.20;92.20;;;;;;5047324;28;20220;-72
2021/08/06 06:57:45;;;;;;;3.03;1.13;;;21.20;92.80;;;;;;5034815;28;20714;-71
2021/08/06 07:00:15;;;;;;;3.00;0.93;;;21.10;92.50;;;;;;5044756;28;20199;-71
2021/08/06 07:02:43;;;;;;;0.70;0.60;;;21.10;91.70;;;;;;5044187;28;20674;-71
2021/08/06 07:05:12;;;;;;;3.60;0.80;;;21.00;92.20;;;;;;5061784;28;20201;-71
2021/08/06 07:07:39;;;;;;;4.10;0.93;;;21.00;92.40;;;;;;5044619;28;20256;-71
2021/08/06 07:10:08;;;;;;;1.55;0.98;;;21.00;93.20;;;;;;5046251;28;20538;-70
2021/08/06 07:12:37;;;;;;;5.57;1.08;;;20.90;93.70;;;;;;5045560;28;20206;-71
2021/08/06 07:15:05;;;;;;;5.97;0.95;;;20.90;94.20;;;;;;5045528;28;20198;-70
2021/08/06 07:17:34;;;;;;;22.17;1.02;;;20.80;93.00;;;;;;5037609;28;20296;-72
2021/08/06 07:20:01;;;;;;;2.47;0.65;;;20.80;92.80;;;;;;5047432;28;20197;-71
2021/08/06 07:22:28;;;;;;;3.17;0.82;;;20.80;93.00;;;;;;5045289;28;20208;-71
2021/08/06 07:24:55;;;;;;;8.98;1.48;;;20.80;93.20;;;;;;5044468;28;20201;-71
2021/08/06 07:27:22;;;;;;;12.45;1.35;;;20.80;92.60;;;;;;5044940;28;20202;-73
2021/08/06 07:29:50;;;;;;;3.00;1.13;;;20.80;92.30;;;;;;5046125;28;20297;-71
2021/08/06 07:32:17;;;;;;;13.85;1.20;;;20.80;91.90;;;;;;5048569;28;20201;-74
2021/08/06 07:34:45;;;;;;;2.90;0.90;;;20.70;91.20;;;;;;5040174;28;20210;-73
2021/08/06 07:37:12;;;;;;;6.68;1.05;;;20.70;90.80;;;;;;5045308;28;20232;-72
2021/08/06 07:39:42;;;;;;;5.90;0.93;;;20.70;91.20;;;;;;5042419;28;20213;-74
2021/08/06 07:42:10;;;;;;;6.25;1.13;;;20.70;91.40;;;;;;5045555;28;20653;-74
2021/08/06 07:44:37;;;;;;;4.50;1.10;;;20.80;92.00;;;;;;5045231;28;20281;-73
2021/08/06 07:47:04;;;;;;;12.20;2.28;;;20.80;92.60;;;;;;5043811;28;20210;-74
2021/08/06 07:49:32;;;;;;;8.15;1.60;;;20.80;93.10;;;;;;5041698;28;20194;-73
2021/08/06 07:52:00;;;;;;;9.38;1.00;;;20.90;92.90;;;;;;5040407;28;20194;-74
2021/08/06 07:54:28;;;;;;;8.35;1.02;;;20.90;92.10;;;;;;5038111;28;20214;-72
2021/08/06 07:56:55;;;;;;;4.40;0.90;;;20.90;92.20;;;;;;5041897;28;20681;-72
2021/08/06 07:59:22;;;;;;;11.98;1.00;;;20.80;92.40;;;;;;5036552;28;20300;-72
2021/08/06 08:01:49;;;;;;;10.10;1.20;;;20.80;92.50;;;;;;5038871;28;20645;-71
2021/08/06 08:04:16;;;;;;;3.47;0.98;;;20.80;92.50;;;;;;5042047;28;20690;-71
2021/08/06 08:06:45;;;;;;;6.75;1.00;;;20.80;92.30;;;;;;5042597;28;20528;-73
2021/08/06 08:09:13;;;;;;;15.60;1.10;;;20.80;92.00;;;;;;5038764;28;20205;-72
2021/08/06 08:11:41;;;;;;;4.38;1.15;;;20.90;91.70;;;;;;5059035;28;20194;-72
2021/08/06 08:14:08;;;;;;;17.95;2.00;;;20.90;91.30;;;;;;5035904;28;20690;-69
2021/08/06 08:16:35;;;;;;;6.60;0.93;;;20.90;91.60;;;;;;5041990;28;20450;-71
2021/08/06 08:19:02;;;;;;;12.48;1.58;;;21.00;92.10;;;;;;5041864;28;20296;-73
2021/08/06 08:21:30;;;;;;;7.82;1.15;;;21.00;92.40;;;;;;5043123;28;20323;-72
2021/08/06 08:23:57;;;;;;;4.97;1.48;;;21.10;92.40;;;;;;5038468;28;20308;-73
2021/08/06 08:26:26;;;;;;;3.42;1.00;;;21.10;91.50;;;;;;5043554;28;20210;-73
2021/08/06 08:28:53;;;;;;;11.23;1.30;;;21.10;91.60;;;;;;5045467;28;20201;-71
2021/08/06 08:31:20;;;;;;;11.60;1.38;;;21.20;92.20;;;;;;5048433;28;20198;-71
2021/08/06 08:33:48;;;;;;;5.40;1.60;;;21.20;92.40;;;;;;5046881;28;20197;-71
2021/08/06 08:36:17;;;;;;;7.88;1.50;;;21.20;92.50;;;;;;5040917;28;20656;-70
2021/08/06 08:38:44;;;;;;;15.18;1.58;;;21.20;92.00;;;;;;5042318;28;20573;-71
2021/08/06 08:41:11;;;;;;;9.82;1.20;;;21.30;91.40;;;;;;5041905;28;20205;-72
2021/08/06 08:43:43;;;;;;;5.57;1.27;;;21.30;91.60;;;;;;5044986;28;20201;-74
2021/08/06 08:46:13;;;;;;;7.60;1.60;;;21.30;91.00;;;;;;5039245;28;20421;-73
2021/08/06 08:48:40;;;;;;;10.15;1.63;;;21.30;90.90;;;;;;5044593;28;20800;-72
2021/08/06 08:51:08;;;;;;;3.05;1.10;;;21.30;91.30;;;;;;5042026;28;20216;-74
2021/08/06 08:53:36;;;;;;;9.45;1.60;;;21.30;91.50;;;;;;5038401;28;20199;-73
2021/08/06 08:56:02;;;;;;;14.25;1.90;;;21.30;91.40;;;;;;5052608;28;20612;-73
2021/08/06 08:58:31;;;;;;;7.82;1.42;;;21.30;90.80;;;;;;5040098;28;20218;-72
2021/08/06 09:00:59;;;;;;;35.75;2.45;;;21.30;90.20;;;;;;5061100;28;20209;-73
2021/08/06 09:03:40;;;;;;;11.27;1.73;;;21.30;89.30;;;;;;5038167;28;20293;-73
2021/08/06 09:06:12;;;;;;;9.88;2.13;;;21.40;90.10;;;;;;5043422;28;21725;-73
2021/08/06 09:08:40;;;;;;;23.20;2.30;;;21.30;90.10;;;;;;5039522;28;20279;-74
2021/08/06 09:11:31;;;;;;;12.70;2.30;;;21.20;89.70;;;;;;5060077;28;20197;-74
2021/08/06 09:14:31;;;;;;;21.85;2.42;;;21.10;90.10;;;;;;5003520;28;20210;-73
2021/08/06 09:17:02;;;;;;;24.85;2.55;;;21.10;90.30;;;;;;4981339;28;20682;-73
2021/08/06 09:19:30;;;;;;;13.25;1.20;;;21.10;90.90;;;;;;5004313;28;20711;-73
2021/08/06 09:22:19;;;;;;;11.63;1.58;;;21.10;91.40;;;;;;5004221;28;20235;-73
2021/08/06 09:25:05;;;;;;;10.85;1.52;;;21.20;91.90;;;;;;4994780;28;20208;-72
2021/08/06 09:27:35;;;;;;;14.07;1.30;;;21.10;92.00;;;;;;4980378;28;20191;-73
2021/08/06 09:30:06;;;;;;;11.50;1.58;;;21.00;92.20;;;;;;4997207;28;20219;-73
2021/08/06 09:32:51;;;;;;;15.40;1.67;;;21.00;92.70;;;;;;5000014;28;20195;-70
2021/08/06 09:35:20;;;;;;;12.45;1.45;;;21.00;93.40;;;;;;4999129;28;20407;-71
2021/08/06 09:37:48;;;;;;;10.52;1.42;;;20.90;92.90;;;;;;4995584;28;20944;-71
2021/08/06 09:40:18;;;;;;;18.35;1.45;;;20.90;93.00;;;;;;5000935;28;20261;-71
2021/08/06 09:42:50;;;;;;;15.18;1.65;;;20.90;93.30;;;;;;4987773;28;20247;-69
2021/08/06 09:45:18;;;;;;;23.48;2.42;;;20.90;93.60;;;;;;4999888;28;20281;-70
2021/08/06 09:47:55;;;;;;;25.33;1.80;;;20.80;93.70;;;;;;4999117;28;20200;-70
2021/08/06 09:50:23;;;;;;;22.50;1.75;;;20.80;93.80;;;;;;5022648;28;20274;-70
2021/08/06 09:52:52;;;;;;;22.48;1.80;;;20.90;93.80;;;;;;5039318;28;20201;-70
2021/08/06 09:55:22;;;;;;;19.27;1.75;;;20.90;92.80;;;;;;5043677;28;20247;-71
2021/08/06 09:57:50;;;;;;;9.05;1.50;;;20.90;92.90;;;;;;5029939;28;20294;-71
2021/08/06 10:00:19;;;;;;;4.78;1.20;;;20.90;93.10;;;;;;5041015;28;20347;-71
2021/08/06 10:02:47;;;;;;;11.07;1.98;;;20.90;93.40;;;;;;5042638;28;20570;-70
2021/08/06 10:05:16;;;;;;;17.60;1.83;;;20.90;93.70;;;;;;5041209;28;20194;-70
2021/08/06 10:07:45;;;;;;;12.25;1.20;;;20.90;93.60;;;;;;5040884;28;20725;-70
2021/08/06 10:10:16;;;;;;;2.53;1.20;;;20.80;93.90;;;;;;5039120;28;20186;-70
2021/08/06 10:12:43;;;;;;;15.57;1.63;;;20.90;94.20;;;;;;5054739;28;20225;-70
2021/08/06 10:15:11;;;;;;;18.65;1.80;;;20.90;94.20;;;;;;5039393;28;20626;-69
2021/08/06 10:17:38;;;;;;;10.20;1.73;;;20.90;94.20;;;;;;5042886;28;20218;-71
2021/08/06 10:20:11;;;;;;;7.43;1.73;;;20.80;94.30;;;;;;5039781;28;20323;-71
2021/08/06 10:22:39;;;;;;;12.70;1.60;;;20.80;94.40;;;;;;5041450;28;20209;-70
2021/08/06 10:25:07;;;;;;;13.77;1.88;;;20.80;94.80;;;;;;5038364;28;20593;-70
2021/08/06 10:27:35;;;;;;;26.23;2.13;;;20.80;94.90;;;;;;5038787;28;20297;-69
2021/08/06 10:30:06;;;;;;;7.53;1.77;;;20.80;94.90;;;;;;5038704;28;20297;-70
2021/08/06 10:32:34;;;;;;;20.58;1.77;;;20.80;95.00;;;;;;5039959;28;20202;-70
2021/08/06 10:35:11;;;;;;;13.43;1.50;;;20.80;95.10;;;;;;5039382;28;20291;-70
2021/08/06 10:37:54;;;;;;;9.68;1.27;;;20.80;95.20;;;;;;5039130;28;20205;-73
2021/08/06 10:44:06;;;;;;;3.25;1.35;;;20.80;95.40;;;;;;4976886;28;20287;-74
2021/08/06 10:47:01;;;;;;;12.70;1.88;;;20.70;95.60;;;;;;4955113;28;20799;-73
2021/08/06 10:49:29;;;;;;;14.15;1.85;;;20.80;95.60;;;;;;4958153;28;20231;-72
2021/08/06 10:52:18;;;;;;;8.48;1.52;;;20.70;95.60;;;;;;4960170;28;20215;-71
2021/08/06 10:54:47;;;;;;;9.00;1.60;;;20.70;95.60;;;;;;4975396;28;20304;-73
2021/08/06 10:57:30;;;;;;;7.43;1.70;;;20.70;95.90;;;;;;4957708;28;20208;-74
2021/08/06 10:59:59;;;;;;;2.28;1.67;;;20.70;95.90;;;;;;4974891;28;20363;-74
2021/08/06 11:02:45;;;;;;;7.32;1.70;;;20.60;96.00;;;;;;4970605;28;20294;-73
2021/08/06 11:05:41;;;;;;;6.45;1.70;;;20.60;96.40;;;;;;4953951;28;20343;-75
2021/08/06 11:08:48;;;;;;;11.30;1.65;;;20.70;96.70;;;;;;4970400;28;20732;-75
2021/08/06 11:11:46;;;;;;;6.32;1.45;;;20.70;96.90;;;;;;4970583;28;20640;-75
2021/08/06 11:14:15;;;;;;;2.00;1.30;;;20.70;96.90;;;;;;4973397;28;21011;-75
2021/08/06 11:17:04;;;;;;;9.07;2.05;;;20.60;96.70;;;;;;4976685;28;20210;-76
2021/08/06 11:19:33;;;;;;;3.00;1.30;;;20.60;96.60;;;;;;4974791;28;20723;-75
2021/08/06 11:22:01;;;;;;;9.48;1.55;;;20.60;96.90;;;;;;5035486;28;20740;-75
2021/08/06 11:24:36;;;;;;;2.20;1.33;;;20.70;96.90;;;;;;5037403;28;20219;-74
2021/08/06 11:27:03;;;;;;;13.50;1.75;;;20.60;96.80;;;;;;5049178;28;20200;-72
2021/08/06 11:29:31;;;;;;;5.95;1.50;;;20.60;96.60;;;;;;5037952;28;20285;-71
2021/08/06 11:32:06;;;;;;;10.65;2.05;;;20.60;96.60;;;;;;5039080;28;20202;-71
2021/08/06 11:34:50;;;;;;;8.90;1.50;;;20.60;96.70;;;;;;5039687;28;20550;-73
2021/08/06 11:37:17;;;;;;;10.23;1.65;;;20.50;96.90;;;;;;5039624;28;20210;-71
2021/08/06 11:40:08;;;;;;;5.47;1.35;;;20.60;97.20;;;;;;5041036;28;20582;-72
2021/08/06 11:42:36;;;;;;;5.32;1.60;;;20.60;97.50;;;;;;5044162;28;20277;-72
2021/08/06 11:45:04;;;;;;;5.38;1.75;;;20.60;97.30;;;;;;5043755;28;20212;-72
2021/08/06 11:47:39;;;;;;;2.85;1.40;;;20.60;97.20;;;;;;5037054;28;20198;-72
2021/08/06 11:50:09;;;;;;;5.80;1.50;;;20.60;97.40;;;;;;5043678;28;20609;-72
2021/08/06 11:52:38;;;;;;;6.50;1.45;;;20.60;97.40;;;;;;5041505;28;20197;-72
2021/08/06 11:55:08;;;;;;;7.10;1.38;;;20.60;97.40;;;;;;5030541;28;20666;-72
2021/08/06 11:57:46;;;;;;;6.90;1.52;;;20.60;97.50;;;;;;5045292;28;20202;-72
2021/08/06 12:00:23;;;;;;;5.30;1.35;;;20.60;97.50;;;;;;5037459;28;20194;-72
2021/08/06 12:03:08;;;;;;;2.72;1.45;;;20.60;97.50;;;;;;5040841;28;20212;-73
2021/08/06 12:05:37;;;;;;;2.28;1.50;;;20.70;97.70;;;;;;5044299;28;20201;-72
2021/08/06 12:08:23;;;;;;;10.27;1.50;;;20.60;97.50;;;;;;5055517;28;20209;-73
2021/08/06 12:10:54;;;;;;;5.47;1.40;;;20.60;97.30;;;;;;5041279;28;20202;-72
2021/08/06 12:13:23;;;;;;;10.45;1.50;;;20.60;97.30;;;;;;5043331;28;20365;-72
2021/08/06 12:16:01;;;;;;;6.00;1.63;;;20.60;97.40;;;;;;5047895;28;20536;-71
2021/08/06 12:18:30;;;;;;;3.15;1.92;;;20.60;97.50;;;;;;5043970;28;20279;-70
2021/08/06 12:20:59;;;;;;;10.68;1.77;;;20.60;97.50;;;;;;5046319;28;20234;-70
2021/08/06 12:23:26;;;;;;;5.13;1.70;;;20.60;97.30;;;;;;5040366;28;20194;-71
2021/08/06 12:26:14;;;;;;;8.48;1.80;;;20.60;97.30;;;;;;5047538;28;20653;-71
2021/08/06 12:28:43;;;;;;;11.30;1.40;;;20.60;97.20;;;;;;5041536;28;20198;-71
2021/08/06 12:31:16;;;;;;;11.10;1.65;;;20.70;97.10;;;;;;5044896;28;20198;-71
2021/08/06 12:33:45;;;;;;;12.18;1.30;;;20.70;96.50;;;;;;5047578;28;20220;-71
2021/08/06 12:36:14;;;;;;;2.60;1.30;;;20.70;96.40;;;;;;5047988;28;20705;-71
2021/08/06 12:38:42;;;;;;;9.32;1.58;;;20.70;96.20;;;;;;5043796;28;20217;-70
2021/08/06 12:41:09;;;;;;;10.57;2.05;;;20.60;96.40;;;;;;5045353;28;20206;-71
2021/08/06 12:43:37;;;;;;;3.53;1.40;;;20.70;96.00;;;;;;5044449;28;20197;-71
2021/08/06 12:46:13;;;;;;;4.15;1.45;;;20.70;96.00;;;;;;5047018;28;20272;-71
2021/08/06 12:49:04;;;;;;;6.05;1.88;;;20.70;95.70;;;;;;5044774;28;20680;-71
2021/08/06 12:51:32;;;;;;;5.82;1.60;;;20.70;95.40;;;;;;5042080;28;20201;-72
2021/08/06 12:53:59;;;;;;;6.85;1.20;;;20.80;95.40;;;;;;5043683;28;20208;-72
2021/08/06 12:56:27;;;;;;;5.35;1.52;;;20.80;95.10;;;;;;5047678;28;20225;-71
2021/08/06 12:59:19;;;;;;;5.30;1.50;;;20.80;94.90;;;;;;5046176;28;20214;-70
2021/08/06 13:01:46;;;;;;;5.93;1.83;;;20.80;94.80;;;;;;5047514;28;20198;-70
2021/08/06 13:04:14;;;;;;;7.53;1.60;;;20.80;94.60;;;;;;5044736;28;20393;-70
2021/08/06 13:06:48;;;;;;;1.50;1.30;;;20.90;94.60;;;;;;5047627;28;20205;-70